sensor_id;sensor_type;location;lat;lon;timestamp;pressure;altitude;pressure_sealevel;temperature;humidity
9855;BME280;4966;48.112;9.282;2022-07-30T00:01:09;94853.94;;;15.85;100.00
9855;BME280;4966;48.112;9.282;2022-07-30T00:03:34;94852.84;;;15.89;100.00
9855;BME280;4966;48.112;9.282;2022-07-30T00:05:59;94850.19;;;15.93;100.00
9855;BME280;4966;48.112;9.282;2022-07-30T00:08:25;94851.44;;;15.99;100.00
9855;BME280;4966;48.112;9.282;2022-07-30T00:10:50;94848.97;;;15.90;100.00
9855;BME280;4966;48.112;9.282;2022-07-30T00:13:17;94845.91;;;15.95;100.00
9855;BME280;4966;48.112;9.282;2022-07-30T00:15:42;94844.63;;;16.16;100.00
9855;BME280;4966;48.112;9.282;2022-07-30T00:18:08;94851.84;;;16.28;100.00
9855;BME280;4966;48.112;9.282;2022-07-30T00:20:34;94850.75;;;16.32;100.00
9855;BME280;4966;48.112;9.282;2022-07-30T00:23:02;94850.97;;;16.20;100.00
9855;BME280;4966;48.112;9.282;2022-07-30T00:25:29;94853.56;;;16.36;100.00
9855;BME280;4966;48.112;9.282;2022-07-30T00:27:54;94847.00;;;16.44;100.00
9855;BME280;4966;48.112;9.282;2022-07-30T00:30:20;94862.16;;;16.34;100.00
9855;BME280;4966;48.112;9.282;2022-07-30T00:32:45;94862.59;;;16.36;100.00
9855;BME280;4966;48.112;9.282;2022-07-30T00:35:11;94851.94;;;16.31;100.00
9855;BME280;4966;48.112;9.282;2022-07-30T00:37:36;94854.91;;;16.49;100.00
9855;BME280;4966;48.112;9.282;2022-07-30T00:40:02;94853.34;;;16.48;100.00
9855;BME280;4966;48.112;9.282;2022-07-30T00:42:42;94851.88;;;16.54;100.00
9855;BME280;4966;48.112;9.282;2022-07-30T00:45:08;94856.97;;;16.56;100.00
9855;BME280;4966;48.112;9.282;2022-07-30T00:47:34;94858.97;;;16.59;100.00
9855;BME280;4966;48.112;9.282;2022-07-30T00:50:00;94856.09;;;16.48;100.00
9855;BME280;4966;48.112;9.282;2022-07-30T00:52:29;94860.16;;;16.62;100.00
9855;BME280;4966;48.112;9.282;2022-07-30T00:54:55;94860.13;;;16.58;99.45
9855;BME280;4966;48.112;9.282;2022-07-30T00:57:21;94856.13;;;16.52;100.00
9855;BME280;4966;48.112;9.282;2022-07-30T00:59:46;94854.91;;;16.49;100.00
9855;BME280;4966;48.112;9.282;2022-07-30T01:02:12;94854.53;;;16.51;100.00
9855;BME280;4966;48.112;9.282;2022-07-30T01:04:37;94857.28;;;16.51;100.00
9855;BME280;4966;48.112;9.282;2022-07-30T01:07:02;94858.13;;;16.55;100.00
9855;BME280;4966;48.112;9.282;2022-07-30T01:09:28;94858.75;;;16.45;100.00
9855;BME280;4966;48.112;9.282;2022-07-30T01:11:53;94860.38;;;16.46;100.00
9855;BME280;4966;48.112;9.282;2022-07-30T01:14:19;94858.13;;;16.55;100.00
9855;BME280;4966;48.112;9.282;2022-07-30T01:16:45;94860.09;;;16.54;100.00
9855;BME280;4966;48.112;9.282;2022-07-30T01:19:16;94858.56;;;16.57;100.00
9855;BME280;4966;48.112;9.282;2022-07-30T01:22:16;94858.34;;;16.69;100.00
9855;BME280;4966;48.112;9.282;2022-07-30T01:27:24;94852.75;;;16.62;100.00
9855;BME280;4966;48.112;9.282;2022-07-30T01:29:51;94851.84;;;16.81;100.00
9855;BME280;4966;48.112;9.282;2022-07-30T01:32:20;94846.84;;;16.64;100.00
9855;BME280;4966;48.112;9.282;2022-07-30T01:34:46;94849.13;;;16.85;100.00
9855;BME280;4966;48.112;9.282;2022-07-30T01:37:15;94854.63;;;16.85;100.00
9855;BME280;4966;48.112;9.282;2022-07-30T01:39:41;94850.31;;;16.84;100.00
9855;BME280;4966;48.112;9.282;2022-07-30T01:42:07;94846.72;;;16.79;100.00
9855;BME280;4966;48.112;9.282;2022-07-30T01:44:36;94857.91;;;16.67;100.00
9855;BME280;4966;48.112;9.282;2022-07-30T01:47:03;94851.66;;;16.70;100.00
9855;BME280;4966;48.112;9.282;2022-07-30T01:49:30;94856.03;;;16.75;100.00
9855;BME280;4966;48.112;9.282;2022-07-30T01:51:57;94855.63;;;16.73;100.00
9855;BME280;4966;48.112;9.282;2022-07-30T01:54:26;94854.69;;;16.88;100.00
9855;BME280;4966;48.112;9.282;2022-07-30T01:56:55;94858.16;;;16.85;100.00
9855;BME280;4966;48.112;9.282;2022-07-30T01:59:21;94870.41;;;16.91;100.00
9855;BME280;4966;48.112;9.282;2022-07-30T02:01:48;94863.22;;;16.83;100.00
9855;BME280;4966;48.112;9.282;2022-07-30T02:04:13;94861.31;;;16.57;100.00
9855;BME280;4966;48.112;9.282;2022-07-30T02:06:51;94865.84;;;16.76;100.00
9855;BME280;4966;48.112;9.282;2022-07-30T02:09:23;94861.88;;;16.70;100.00
9855;BME280;4966;48.112;9.282;2022-07-30T02:11:53;94858.13;;;16.55;100.00
9855;BME280;4966;48.112;9.282;2022-07-30T02:14:52;94864.78;;;16.54;100.00
9855;BME280;4966;48.112;9.282;2022-07-30T02:17:28;94846.91;;;16.67;100.00
9855;BME280;4966;48.112;9.282;2022-07-30T02:19:54;94862.63;;;16.67;100.00
9855;BME280;4966;48.112;9.282;2022-07-30T02:22:22;94852.50;;;16.74;100.00
9855;BME280;4966;48.112;9.282;2022-07-30T02:24:50;94848.88;;;16.67;100.00
9855;BME280;4966;48.112;9.282;2022-07-30T02:27:23;94855.16;;;16.67;100.00
9855;BME280;4966;48.112;9.282;2022-07-30T02:29:51;94851.25;;;16.68;99.87
9855;BME280;4966;48.112;9.282;2022-07-30T02:32:20;94860.16;;;16.62;100.00
9855;BME280;4966;48.112;9.282;2022-07-30T02:34:51;94858.97;;;16.59;99.59
9855;BME280;4966;48.112;9.282;2022-07-30T02:37:20;94862.88;;;16.58;99.71
9855;BME280;4966;48.112;9.282;2022-07-30T02:39:50;94857.19;;;16.44;100.00
9855;BME280;4966;48.112;9.282;2022-07-30T02:42:17;94856.66;;;16.34;100.00
9855;BME280;4966;48.112;9.282;2022-07-30T02:44:44;94857.44;;;16.35;100.00
9855;BME280;4966;48.112;9.282;2022-07-30T02:47:12;94865.28;;;16.33;100.00
9855;BME280;4966;48.112;9.282;2022-07-30T02:49:38;94865.22;;;16.29;100.00
9855;BME280;4966;48.112;9.282;2022-07-30T02:52:05;94869.44;;;16.23;100.00
9855;BME280;4966;48.112;9.282;2022-07-30T02:54:34;94872.19;;;16.23;100.00
9855;BME280;4966;48.112;9.282;2022-07-30T02:57:02;94866.97;;;16.14;100.00
9855;BME280;4966;48.112;9.282;2022-07-30T02:59:29;94868.84;;;16.10;100.00
9855;BME280;4966;48.112;9.282;2022-07-30T03:01:56;94866.13;;;16.10;100.00
9855;BME280;4966;48.112;9.282;2022-07-30T03:04:23;94860.94;;;16.05;100.00
9855;BME280;4966;48.112;9.282;2022-07-30T03:06:50;94859.31;;;16.01;100.00
9855;BME280;4966;48.112;9.282;2022-07-30T03:09:17;94853.66;;;15.90;100.00
9855;BME280;4966;48.112;9.282;2022-07-30T03:11:43;94855.53;;;15.86;100.00
9855;BME280;4966;48.112;9.282;2022-07-30T03:14:09;94861.34;;;15.81;100.00
9855;BME280;4966;48.112;9.282;2022-07-30T03:16:36;94857.78;;;15.80;100.00
9855;BME280;4966;48.112;9.282;2022-07-30T03:19:06;94865.19;;;15.76;100.00
9855;BME280;4966;48.112;9.282;2022-07-30T03:21:34;94865.22;;;15.80;100.00
9855;BME280;4966;48.112;9.282;2022-07-30T03:24:02;94864.53;;;15.63;100.00
9855;BME280;4966;48.112;9.282;2022-07-30T03:26:29;94867.34;;;15.67;100.00
9855;BME280;4966;48.112;9.282;2022-07-30T03:28:55;94870.88;;;15.44;100.00
9855;BME280;4966;48.112;9.282;2022-07-30T03:31:21;94869.59;;;15.61;100.00
9855;BME280;4966;48.112;9.282;2022-07-30T03:33:46;94873.88;;;15.59;100.00
9855;BME280;4966;48.112;9.282;2022-07-30T03:36:13;94880.63;;;15.65;100.00
9855;BME280;4966;48.112;9.282;2022-07-30T03:38:40;94879.09;;;15.67;100.00
9855;BME280;4966;48.112;9.282;2022-07-30T03:41:07;94884.72;;;15.51;100.00
9855;BME280;4966;48.112;9.282;2022-07-30T03:43:34;94884.84;;;15.59;100.00
9855;BME280;4966;48.112;9.282;2022-07-30T03:46:03;94878.94;;;15.57;100.00
9855;BME280;4966;48.112;9.282;2022-07-30T03:48:30;94876.28;;;15.41;100.00
9855;BME280;4966;48.112;9.282;2022-07-30T03:50:57;94892.44;;;15.46;100.00
9855;BME280;4966;48.112;9.282;2022-07-30T03:53:24;94889.63;;;15.42;100.00
9855;BME280;4966;48.112;9.282;2022-07-30T03:55:51;94888.47;;;15.43;100.00
9855;BME280;4966;48.112;9.282;2022-07-30T03:58:16;94887.38;;;15.48;100.00
9855;BME280;4966;48.112;9.282;2022-07-30T04:00:46;94887.88;;;15.53;100.00
9855;BME280;4966;48.112;9.282;2022-07-30T04:03:13;94889.22;;;15.40;100.00
9855;BME280;4966;48.112;9.282;2022-07-30T04:05:47;94895.16;;;15.46;100.00
9855;BME280;4966;48.112;9.282;2022-07-30T04:08:13;94897.03;;;15.42;100.00
9855;BME280;4966;48.112;9.282;2022-07-30T04:10:38;94897.50;;;15.24;100.00
9855;BME280;4966;48.112;9.282;2022-07-30T04:13:03;94900.03;;;15.33;100.00
9855;BME280;4966;48.112;9.282;2022-07-30T04:15:30;94904.81;;;15.17;100.00
9855;BME280;4966;48.112;9.282;2022-07-30T04:18:00;94906.38;;;15.18;100.00
9855;BME280;4966;48.112;9.282;2022-07-30T04:20:31;94916.41;;;15.10;100.00
9855;BME280;4966;48.112;9.282;2022-07-30T04:22:59;94916.41;;;15.10;100.00
9855;BME280;4966;48.112;9.282;2022-07-30T04:25:25;94912.94;;;15.13;100.00
9855;BME280;4966;48.112;9.282;2022-07-30T04:27:51;94925.84;;;15.13;100.00
9855;BME280;4966;48.112;9.282;2022-07-30T04:30:16;94925.16;;;15.16;100.00
9855;BME280;4966;48.112;9.282;2022-07-30T04:32:42;94927.59;;;15.21;100.00
9855;BME280;4966;48.112;9.282;2022-07-30T04:35:08;94936.31;;;15.26;99.75
9855;BME280;4966;48.112;9.282;2022-07-30T04:37:33;94939.94;;;15.11;99.75
9855;BME280;4966;48.112;9.282;2022-07-30T04:39:59;94934.31;;;15.04;99.58
9855;BME280;4966;48.112;9.282;2022-07-30T04:42:28;94944.34;;;15.16;98.78
9855;BME280;4966;48.112;9.282;2022-07-30T04:44:55;94939.66;;;15.16;98.25
9855;BME280;4966;48.112;9.282;2022-07-30T04:47:21;94948.00;;;15.23;97.63
9855;BME280;4966;48.112;9.282;2022-07-30T04:49:47;94952.91;;;15.14;98.74
9855;BME280;4966;48.112;9.282;2022-07-30T04:52:14;94944.41;;;15.19;98.65
9855;BME280;4966;48.112;9.282;2022-07-30T04:54:47;94948.78;;;15.24;98.74
9855;BME280;4966;48.112;9.282;2022-07-30T04:57:16;94953.09;;;15.25;99.84
9855;BME280;4966;48.112;9.282;2022-07-30T04:59:42;94957.00;;;15.43;99.66
9855;BME280;4966;48.112;9.282;2022-07-30T05:02:09;94954.09;;;15.56;99.14
9855;BME280;4966;48.112;9.282;2022-07-30T05:04:36;94963.94;;;15.76;96.24
9855;BME280;4966;48.112;9.282;2022-07-30T05:07:03;94965.19;;;15.82;96.12
9855;BME280;4966;48.112;9.282;2022-07-30T05:09:30;94963.31;;;15.86;96.73
9855;BME280;4966;48.112;9.282;2022-07-30T05:11:56;94964.53;;;15.89;97.96
9855;BME280;4966;48.112;9.282;2022-07-30T05:14:23;94972.16;;;15.99;98.54
9855;BME280;4966;48.112;9.282;2022-07-30T05:16:49;94966.09;;;16.09;99.23
9855;BME280;4966;48.112;9.282;2022-07-30T05:19:16;94980.22;;;15.88;100.00
9855;BME280;4966;48.112;9.282;2022-07-30T05:21:43;94980.34;;;16.19;99.83
9855;BME280;4966;48.112;9.282;2022-07-30T05:24:08;94978.19;;;16.31;99.46
9855;BME280;4966;48.112;9.282;2022-07-30T05:26:33;94986.09;;;16.33;98.40
9855;BME280;4966;48.112;9.282;2022-07-30T05:28:59;94988.56;;;16.42;98.17
9855;BME280;4966;48.112;9.282;2022-07-30T05:31:25;94981.72;;;16.55;98.67
9855;BME280;4966;48.112;9.282;2022-07-30T05:33:51;94977.59;;;16.68;98.08
9855;BME280;4966;48.112;9.282;2022-07-30T05:36:16;94984.16;;;16.60;97.92
9855;BME280;4966;48.112;9.282;2022-07-30T05:38:41;94977.06;;;16.59;97.43
9855;BME280;4966;48.112;9.282;2022-07-30T05:41:07;94970.81;;;16.35;98.56
9855;BME280;4966;48.112;9.282;2022-07-30T05:43:32;94978.31;;;16.38;99.11
9855;BME280;4966;48.112;9.282;2022-07-30T05:45:57;94979.22;;;16.73;98.39
9855;BME280;4966;48.112;9.282;2022-07-30T05:48:23;94980.41;;;16.98;98.38
9855;BME280;4966;48.112;9.282;2022-07-30T05:50:48;94986.69;;;16.99;96.51
9855;BME280;4966;48.112;9.282;2022-07-30T05:53:14;94988.31;;;16.77;96.45
9855;BME280;4966;48.112;9.282;2022-07-30T05:55:39;94984.94;;;17.14;95.24
9855;BME280;4966;48.112;9.282;2022-07-30T05:58:04;94986.84;;;17.40;95.94
9855;BME280;4966;48.112;9.282;2022-07-30T06:00:30;94983.19;;;17.62;95.22
9855;BME280;4966;48.112;9.282;2022-07-30T06:02:55;94986.75;;;17.67;92.87
9855;BME280;4966;48.112;9.282;2022-07-30T06:05:21;94993.84;;;17.34;92.99
9855;BME280;4966;48.112;9.282;2022-07-30T06:07:46;94995.50;;;17.12;94.30
9855;BME280;4966;48.112;9.282;2022-07-30T06:10:12;94993.84;;;17.34;92.12
9855;BME280;4966;48.112;9.282;2022-07-30T06:12:38;94993.28;;;17.51;93.22
9855;BME280;4966;48.112;9.282;2022-07-30T06:15:03;94997.84;;;17.74;90.98
9855;BME280;4966;48.112;9.282;2022-07-30T06:17:29;95002.31;;;17.82;89.39
9855;BME280;4966;48.112;9.282;2022-07-30T06:19:54;95001.69;;;17.65;89.28
9855;BME280;4966;48.112;9.282;2022-07-30T06:22:20;95004.88;;;17.68;87.83
9855;BME280;4966;48.112;9.282;2022-07-30T06:24:45;95004.72;;;17.87;88.37
9855;BME280;4966;48.112;9.282;2022-07-30T06:27:11;95006.00;;;17.97;87.30
9855;BME280;4966;48.112;9.282;2022-07-30T06:29:36;95001.69;;;17.99;84.34
9855;BME280;4966;48.112;9.282;2022-07-30T06:32:02;95002.63;;;18.14;84.40
9855;BME280;4966;48.112;9.282;2022-07-30T06:34:28;95003.41;;;18.15;83.89
9855;BME280;4966;48.112;9.282;2022-07-30T06:36:53;95004.09;;;18.04;83.32
9855;BME280;4966;48.112;9.282;2022-07-30T06:39:19;95005.00;;;18.16;83.28
9855;BME280;4966;48.112;9.282;2022-07-30T06:41:51;95003.41;;;18.56;82.30
9855;BME280;4966;48.112;9.282;2022-07-30T06:44:16;95002.63;;;18.59;83.27
9855;BME280;4966;48.112;9.282;2022-07-30T06:46:42;95001.78;;;18.55;83.24
9855;BME280;4966;48.112;9.282;2022-07-30T06:49:07;94999.28;;;18.35;87.22
9855;BME280;4966;48.112;9.282;2022-07-30T06:51:33;95006.44;;;18.91;86.74
9855;BME280;4966;48.112;9.282;2022-07-30T06:53:58;95004.25;;;18.63;86.09
9855;BME280;4966;48.112;9.282;2022-07-30T06:56:23;95006.88;;;19.01;85.09
9855;BME280;4966;48.112;9.282;2022-07-30T06:58:49;95006.91;;;19.08;84.88
9855;BME280;4966;48.112;9.282;2022-07-30T07:01:14;95001.94;;;19.28;84.05
9855;BME280;4966;48.112;9.282;2022-07-30T07:03:39;95011.81;;;19.32;85.16
9855;BME280;4966;48.112;9.282;2022-07-30T07:06:05;95015.09;;;19.60;84.34
9855;BME280;4966;48.112;9.282;2022-07-30T07:08:30;95012.44;;;19.81;82.63
9855;BME280;4966;48.112;9.282;2022-07-30T07:10:56;95009.75;;;20.03;82.14
9855;BME280;4966;48.112;9.282;2022-07-30T07:13:21;95015.66;;;20.05;81.74
9855;BME280;4966;48.112;9.282;2022-07-30T07:15:46;95007.72;;;19.85;81.93
9855;BME280;4966;48.112;9.282;2022-07-30T07:18:12;95010.56;;;20.25;80.05
9855;BME280;4966;48.112;9.282;2022-07-30T07:20:39;95018.09;;;20.46;77.91
9855;BME280;4966;48.112;9.282;2022-07-30T07:23:04;95012.97;;;20.55;77.07
9855;BME280;4966;48.112;9.282;2022-07-30T07:25:30;95013.00;;;20.62;75.50
9855;BME280;4966;48.112;9.282;2022-07-30T07:27:55;95014.50;;;20.09;77.80
9855;BME280;4966;48.112;9.282;2022-07-30T07:30:20;95022.03;;;20.34;72.33
9855;BME280;4966;48.112;9.282;2022-07-30T07:32:46;95018.06;;;20.21;68.79
9855;BME280;4966;48.112;9.282;2022-07-30T07:35:11;95015.78;;;20.69;67.13
9855;BME280;4966;48.112;9.282;2022-07-30T07:37:38;95018.16;;;20.60;69.54
9855;BME280;4966;48.112;9.282;2022-07-30T07:40:04;95013.41;;;20.75;68.46
9855;BME280;4966;48.112;9.282;2022-07-30T07:42:29;95013.38;;;20.50;69.31
9855;BME280;4966;48.112;9.282;2022-07-30T07:44:54;95022.03;;;20.45;67.74
9855;BME280;4966;48.112;9.282;2022-07-30T07:47:20;95020.50;;;20.87;65.53
9855;BME280;4966;48.112;9.282;2022-07-30T07:49:45;95020.91;;;20.78;67.67
9855;BME280;4966;48.112;9.282;2022-07-30T07:52:11;95026.84;;;20.69;66.77
9855;BME280;4966;48.112;9.282;2022-07-30T07:54:36;95020.50;;;20.94;65.16
9855;BME280;4966;48.112;9.282;2022-07-30T07:57:02;95032.34;;;21.09;63.00
9855;BME280;4966;48.112;9.282;2022-07-30T07:59:31;95028.75;;;21.12;64.55
9855;BME280;4966;48.112;9.282;2022-07-30T08:01:57;95040.66;;;21.05;63.25
9855;BME280;4966;48.112;9.282;2022-07-30T08:04:22;95029.53;;;21.44;58.72
9855;BME280;4966;48.112;9.282;2022-07-30T08:06:48;95032.72;;;21.25;54.58
9855;BME280;4966;48.112;9.282;2022-07-30T08:09:13;95031.03;;;21.71;52.00
9855;BME280;4966;48.112;9.282;2022-07-30T08:11:38;95030.13;;;21.95;49.69
9855;BME280;4966;48.112;9.282;2022-07-30T08:14:04;95032.50;;;21.97;48.96
9855;BME280;4966;48.112;9.282;2022-07-30T08:16:29;95027.53;;;21.49;47.35
9855;BME280;4966;48.112;9.282;2022-07-30T08:18:55;95029.72;;;21.93;47.67
9855;BME280;4966;48.112;9.282;2022-07-30T08:21:20;95025.72;;;22.05;46.24
9855;BME280;4966;48.112;9.282;2022-07-30T08:23:45;95032.31;;;22.36;45.52
9855;BME280;4966;48.112;9.282;2022-07-30T08:26:11;95026.41;;;22.34;47.43
9855;BME280;4966;48.112;9.282;2022-07-30T08:28:36;95022.72;;;22.48;45.62
9855;BME280;4966;48.112;9.282;2022-07-30T08:31:02;95022.50;;;22.77;45.08
9855;BME280;4966;48.112;9.282;2022-07-30T08:33:27;95021.22;;;22.88;44.79
9855;BME280;4966;48.112;9.282;2022-07-30T08:35:53;95014.81;;;23.02;45.05
9855;BME280;4966;48.112;9.282;2022-07-30T08:38:18;95013.97;;;23.09;44.42
9855;BME280;4966;48.112;9.282;2022-07-30T08:40:45;95026.16;;;22.66;43.78
9855;BME280;4966;48.112;9.282;2022-07-30T08:43:10;95019.28;;;22.85;43.22
9855;BME280;4966;48.112;9.282;2022-07-30T08:45:36;95019.50;;;22.57;44.63
9855;BME280;4966;48.112;9.282;2022-07-30T08:48:07;95019.06;;;22.65;41.75
9855;BME280;4966;48.112;9.282;2022-07-30T08:50:33;95019.78;;;22.69;42.42
9855;BME280;4966;48.112;9.282;2022-07-30T08:53:01;95019.84;;;22.62;40.68
9855;BME280;4966;48.112;9.282;2022-07-30T08:55:27;95023.16;;;22.43;40.60
9855;BME280;4966;48.112;9.282;2022-07-30T08:57:53;95024.00;;;22.88;41.82
9855;BME280;4966;48.112;9.282;2022-07-30T09:00:19;95020.50;;;22.81;42.02
9855;BME280;4966;48.112;9.282;2022-07-30T09:02:45;95030.63;;;23.05;43.03
9855;BME280;4966;48.112;9.282;2022-07-30T09:05:12;95030.34;;;23.34;42.87
9855;BME280;4966;48.112;9.282;2022-07-30T09:07:38;95026.22;;;23.11;41.13
9855;BME280;4966;48.112;9.282;2022-07-30T09:10:05;95022.75;;;23.42;40.03
9855;BME280;4966;48.112;9.282;2022-07-30T09:12:32;95024.03;;;23.33;40.37
9855;BME280;4966;48.112;9.282;2022-07-30T09:15:05;95020.72;;;23.04;39.55
9855;BME280;4966;48.112;9.282;2022-07-30T09:18:00;95025.47;;;23.07;40.90
9855;BME280;4966;48.112;9.282;2022-07-30T09:20:32;95026.84;;;23.30;41.85
9855;BME280;4966;48.112;9.282;2022-07-30T09:23:00;95021.66;;;23.32;40.91
9855;BME280;4966;48.112;9.282;2022-07-30T09:25:39;95032.47;;;23.23;40.50
9855;BME280;4966;48.112;9.282;2022-07-30T09:28:07;95028.78;;;22.88;39.36
9855;BME280;4966;48.112;9.282;2022-07-30T09:30:43;95032.81;;;22.80;39.85
9855;BME280;4966;48.112;9.282;2022-07-30T09:33:09;95029.47;;;23.44;39.50
9855;BME280;4966;48.112;9.282;2022-07-30T09:35:35;95032.09;;;23.59;39.00
9855;BME280;4966;48.112;9.282;2022-07-30T09:38:00;95029.91;;;23.77;39.46
9855;BME280;4966;48.112;9.282;2022-07-30T09:40:28;95029.00;;;24.18;39.60
9855;BME280;4966;48.112;9.282;2022-07-30T09:43:10;95028.91;;;24.56;38.97
9855;BME280;4966;48.112;9.282;2022-07-30T09:45:51;95028.97;;;24.52;37.43
9855;BME280;4966;48.112;9.282;2022-07-30T09:48:35;95017.69;;;24.32;36.94
9855;BME280;4966;48.112;9.282;2022-07-30T09:51:00;95030.22;;;24.48;39.08
9855;BME280;4966;48.112;9.282;2022-07-30T09:53:26;95024.63;;;24.75;36.21
9855;BME280;4966;48.112;9.282;2022-07-30T09:55:51;95023.38;;;25.03;35.91
9855;BME280;4966;48.112;9.282;2022-07-30T09:58:17;95024.59;;;24.51;35.85
9855;BME280;4966;48.112;9.282;2022-07-30T10:00:43;95017.19;;;24.68;36.20
9855;BME280;4966;48.112;9.282;2022-07-30T10:03:20;95020.56;;;25.30;34.58
9855;BME280;4966;48.112;9.282;2022-07-30T10:05:59;95021.91;;;24.95;34.38
9855;BME280;4966;48.112;9.282;2022-07-30T10:08:42;95013.97;;;24.42;36.27
9855;BME280;4966;48.112;9.282;2022-07-30T10:11:21;95023.75;;;24.81;37.46
9855;BME280;4966;48.112;9.282;2022-07-30T10:13:53;95015.81;;;25.51;35.65
9855;BME280;4966;48.112;9.282;2022-07-30T10:16:19;95015.97;;;25.20;37.22
9855;BME280;4966;48.112;9.282;2022-07-30T10:18:45;95013.06;;;25.47;35.56
9855;BME280;4966;48.112;9.282;2022-07-30T10:21:11;95009.22;;;25.41;34.92
9855;BME280;4966;48.112;9.282;2022-07-30T10:23:37;95011.75;;;25.95;34.05
9855;BME280;4966;48.112;9.282;2022-07-30T10:26:02;95011.75;;;25.75;34.48
9855;BME280;4966;48.112;9.282;2022-07-30T10:28:29;94994.16;;;25.38;35.64
9855;BME280;4966;48.112;9.282;2022-07-30T10:30:56;94999.47;;;25.73;36.32
9855;BME280;4966;48.112;9.282;2022-07-30T10:33:26;95003.81;;;26.14;36.84
9855;BME280;4966;48.112;9.282;2022-07-30T10:35:52;95004.31;;;26.45;34.54
9855;BME280;4966;48.112;9.282;2022-07-30T10:38:21;94999.06;;;26.30;33.46
9855;BME280;4966;48.112;9.282;2022-07-30T10:41:03;95001.22;;;26.59;32.98
9855;BME280;4966;48.112;9.282;2022-07-30T10:46:25;95005.78;;;26.86;33.29
9855;BME280;4966;48.112;9.282;2022-07-30T10:48:54;95004.47;;;26.74;31.54
9855;BME280;4966;48.112;9.282;2022-07-30T10:51:49;95008.41;;;26.40;32.73
9855;BME280;4966;48.112;9.282;2022-07-30T10:57:18;94997.84;;;26.31;31.96
9855;BME280;4966;48.112;9.282;2022-07-30T11:02:21;94989.91;;;26.83;32.76
9855;BME280;4966;48.112;9.282;2022-07-30T11:04:47;94985.09;;;27.00;31.07
9855;BME280;4966;48.112;9.282;2022-07-30T11:09:52;95006.47;;;26.73;32.81
9855;BME280;4966;48.112;9.282;2022-07-30T11:15:05;94987.81;;;26.87;30.73
9855;BME280;4966;48.112;9.282;2022-07-30T11:18:01;94986.94;;;26.90;30.54
9855;BME280;4966;48.112;9.282;2022-07-30T11:20:28;94996.53;;;26.89;32.28
9855;BME280;4966;48.112;9.282;2022-07-30T11:23:08;94985.47;;;27.47;30.43
9855;BME280;4966;48.112;9.282;2022-07-30T11:27:59;94991.53;;;31.32;24.49
9855;BME280;4966;48.112;9.282;2022-07-30T11:32:55;94985.47;;;35.43;19.91
9855;BME280;4966;48.112;9.282;2022-07-30T11:35:28;94982.00;;;35.13;20.27
9855;BME280;4966;48.112;9.282;2022-07-30T11:40:27;94968.66;;;36.22;19.26
9855;BME280;4966;48.112;9.282;2022-07-30T11:46:06;94965.84;;;36.01;18.10
9855;BME280;4966;48.112;9.282;2022-07-30T11:48:32;94964.69;;;35.87;18.87
9855;BME280;4966;48.112;9.282;2022-07-30T11:50:58;94949.00;;;36.44;18.54
9855;BME280;4966;48.112;9.282;2022-07-30T11:53:25;94975.22;;;34.90;20.03
9855;BME280;4966;48.112;9.282;2022-07-30T11:55:54;94963.28;;;35.36;19.32
9855;BME280;4966;48.112;9.282;2022-07-30T12:00:51;94965.25;;;34.94;19.71
9855;BME280;4966;48.112;9.282;2022-07-30T12:03:19;94953.53;;;35.78;17.20
9855;BME280;4966;48.112;9.282;2022-07-30T12:05:45;94960.09;;;36.42;16.67
9855;BME280;4966;48.112;9.282;2022-07-30T12:08:11;94943.28;;;36.33;18.23
9855;BME280;4966;48.112;9.282;2022-07-30T12:10:37;94948.47;;;34.56;19.23
9855;BME280;4966;48.112;9.282;2022-07-30T12:13:12;94941.97;;;37.46;17.57
9855;BME280;4966;48.112;9.282;2022-07-30T12:15:45;94941.03;;;37.66;17.66
9855;BME280;4966;48.112;9.282;2022-07-30T12:18:11;94940.19;;;37.00;18.90
9855;BME280;4966;48.112;9.282;2022-07-30T12:20:39;94951.06;;;35.09;18.76
9855;BME280;4966;48.112;9.282;2022-07-30T12:23:11;94952.88;;;32.77;21.05
9855;BME280;4966;48.112;9.282;2022-07-30T12:25:41;94951.66;;;30.97;25.52
9855;BME280;4966;48.112;9.282;2022-07-30T12:28:07;94954.56;;;30.35;24.28
9855;BME280;4966;48.112;9.282;2022-07-30T12:30:37;94952.75;;;30.90;24.15
9855;BME280;4966;48.112;9.282;2022-07-30T12:33:05;94956.19;;;30.54;24.93
9855;BME280;4966;48.112;9.282;2022-07-30T12:35:44;94945.72;;;29.00;25.61
9855;BME280;4966;48.112;9.282;2022-07-30T12:38:10;94948.31;;;28.05;27.67
9855;BME280;4966;48.112;9.282;2022-07-30T12:40:55;94948.53;;;28.11;28.25
9855;BME280;4966;48.112;9.282;2022-07-30T12:43:53;94948.44;;;28.02;28.01
9855;BME280;4966;48.112;9.282;2022-07-30T12:46:23;94952.00;;;27.60;29.26
9855;BME280;4966;48.112;9.282;2022-07-30T12:49:01;94958.94;;;27.85;29.68
9855;BME280;4966;48.112;9.282;2022-07-30T12:51:34;94948.41;;;27.89;29.64
9855;BME280;4966;48.112;9.282;2022-07-30T12:54:14;94941.59;;;28.03;29.16
9855;BME280;4966;48.112;9.282;2022-07-30T12:56:54;94941.41;;;28.74;27.79
9855;BME280;4966;48.112;9.282;2022-07-30T12:59:21;94944.00;;;29.95;25.27
9855;BME280;4966;48.112;9.282;2022-07-30T13:01:46;94940.78;;;29.04;25.94
9855;BME280;4966;48.112;9.282;2022-07-30T13:04:14;94940.63;;;32.56;22.08
9855;BME280;4966;48.112;9.282;2022-07-30T13:06:40;94930.81;;;34.76;20.42
9855;BME280;4966;48.112;9.282;2022-07-30T13:09:19;94927.66;;;37.18;17.60
9855;BME280;4966;48.112;9.282;2022-07-30T13:11:45;94924.28;;;37.74;15.83
9855;BME280;4966;48.112;9.282;2022-07-30T13:14:12;94932.66;;;36.91;17.44
9855;BME280;4966;48.112;9.282;2022-07-30T13:16:39;94928.00;;;36.25;18.63
9855;BME280;4966;48.112;9.282;2022-07-30T13:19:06;94929.03;;;35.54;18.33
9855;BME280;4966;48.112;9.282;2022-07-30T13:21:33;94924.22;;;36.33;17.52
9855;BME280;4966;48.112;9.282;2022-07-30T13:23:58;94922.75;;;37.13;16.37
9855;BME280;4966;48.112;9.282;2022-07-30T13:26:24;94912.56;;;38.54;14.92
9855;BME280;4966;48.112;9.282;2022-07-30T13:28:49;94923.19;;;39.57;13.58
9855;BME280;4966;48.112;9.282;2022-07-30T13:31:15;94916.59;;;37.91;14.81
9855;BME280;4966;48.112;9.282;2022-07-30T13:33:40;94919.03;;;34.47;18.79
9855;BME280;4966;48.112;9.282;2022-07-30T13:36:06;94920.16;;;32.79;19.96
9855;BME280;4966;48.112;9.282;2022-07-30T13:38:32;94911.56;;;31.24;21.42
9855;BME280;4966;48.112;9.282;2022-07-30T13:40:58;94915.22;;;29.50;24.72
9855;BME280;4966;48.112;9.282;2022-07-30T13:43:24;94923.09;;;29.64;24.43
9855;BME280;4966;48.112;9.282;2022-07-30T13:45:50;94921.69;;;30.13;26.88
9855;BME280;4966;48.112;9.282;2022-07-30T13:48:16;94912.94;;;33.36;20.75
9855;BME280;4966;48.112;9.282;2022-07-30T13:50:43;94909.91;;;34.38;18.37